sensor_id;sensor_type;location;lat;lon;timestamp;P1;durP1;ratioP1;P2;durP2;ratioP2
12844;SDS011;68700;48.534;9.196;2024-02-26T00:02:05;1.10;;;1.00;;
12844;SDS011;68700;48.534;9.196;2024-02-26T00:05:29;1.53;;;1.20;;
12844;SDS011;68700;48.534;9.196;2024-02-26T00:08:52;1.37;;;1.20;;
12844;SDS011;68700;48.534;9.196;2024-02-26T00:12:14;1.83;;;0.97;;
12844;SDS011;68700;48.534;9.196;2024-02-26T00:15:36;1.83;;;1.00;;
12844;SDS011;68700;48.534;9.196;2024-02-26T00:18:58;1.17;;;0.93;;
12844;SDS011;68700;48.534;9.196;2024-02-26T00:22:21;1.97;;;1.10;;
12844;SDS011;68700;48.534;9.196;2024-02-26T00:25:43;1.40;;;0.97;;
12844;SDS011;68700;48.534;9.196;2024-02-26T00:29:05;1.00;;;0.87;;
12844;SDS011;68700;48.534;9.196;2024-02-26T00:32:27;1.37;;;1.27;;
12844;SDS011;68700;48.534;9.196;2024-02-26T00:35:49;0.80;;;0.80;;
12844;SDS011;68700;48.534;9.196;2024-02-26T00:39:13;2.60;;;1.10;;
12844;SDS011;68700;48.534;9.196;2024-02-26T00:42:35;1.20;;;1.10;;
12844;SDS011;68700;48.534;9.196;2024-02-26T00:45:57;1.73;;;0.90;;
12844;SDS011;68700;48.534;9.196;2024-02-26T00:49:18;1.90;;;1.20;;
12844;SDS011;68700;48.534;9.196;2024-02-26T00:52:41;1.33;;;1.00;;
12844;SDS011;68700;48.534;9.196;2024-02-26T00:56:04;1.73;;;1.00;;
12844;SDS011;68700;48.534;9.196;2024-02-26T00:59:26;1.40;;;1.10;;
12844;SDS011;68700;48.534;9.196;2024-02-26T01:02:48;1.93;;;0.90;;
12844;SDS011;68700;48.534;9.196;2024-02-26T01:06:10;1.20;;;1.07;;
12844;SDS011;68700;48.534;9.196;2024-02-26T01:09:32;1.47;;;1.20;;
12844;SDS011;68700;48.534;9.196;2024-02-26T01:12:55;1.60;;;1.23;;
12844;SDS011;68700;48.534;9.196;2024-02-26T01:16:17;1.20;;;1.10;;
12844;SDS011;68700;48.534;9.196;2024-02-26T01:19:39;1.37;;;1.27;;
12844;SDS011;68700;48.534;9.196;2024-02-26T01:23:01;0.87;;;0.83;;
12844;SDS011;68700;48.534;9.196;2024-02-26T01:26:23;2.10;;;1.10;;
12844;SDS011;68700;48.534;9.196;2024-02-26T01:29:46;1.10;;;1.00;;
12844;SDS011;68700;48.534;9.196;2024-02-26T01:33:08;1.37;;;1.10;;
12844;SDS011;68700;48.534;9.196;2024-02-26T01:36:30;1.20;;;0.97;;
12844;SDS011;68700;48.534;9.196;2024-02-26T01:39:52;1.20;;;1.10;;
12844;SDS011;68700;48.534;9.196;2024-02-26T01:43:14;1.10;;;0.80;;
12844;SDS011;68700;48.534;9.196;2024-02-26T01:46:37;1.33;;;1.13;;
12844;SDS011;68700;48.534;9.196;2024-02-26T01:49:59;1.20;;;1.10;;
12844;SDS011;68700;48.534;9.196;2024-02-26T01:53:21;2.50;;;1.10;;
12844;SDS011;68700;48.534;9.196;2024-02-26T01:56:43;1.33;;;1.13;;
12844;SDS011;68700;48.534;9.196;2024-02-26T02:00:05;1.20;;;1.10;;
12844;SDS011;68700;48.534;9.196;2024-02-26T02:03:30;1.20;;;1.10;;
12844;SDS011;68700;48.534;9.196;2024-02-26T02:06:52;1.20;;;1.10;;
12844;SDS011;68700;48.534;9.196;2024-02-26T02:10:14;1.43;;;1.20;;
12844;SDS011;68700;48.534;9.196;2024-02-26T02:13:38;2.40;;;1.10;;
12844;SDS011;68700;48.534;9.196;2024-02-26T02:17:00;1.00;;;0.80;;
12844;SDS011;68700;48.534;9.196;2024-02-26T02:20:26;1.27;;;0.97;;
12844;SDS011;68700;48.534;9.196;2024-02-26T02:23:52;2.70;;;1.13;;
12844;SDS011;68700;48.534;9.196;2024-02-26T02:27:14;2.00;;;1.20;;
12844;SDS011;68700;48.534;9.196;2024-02-26T02:30:36;1.43;;;1.27;;
12844;SDS011;68700;48.534;9.196;2024-02-26T02:34:00;2.00;;;1.50;;
12844;SDS011;68700;48.534;9.196;2024-02-26T02:37:23;2.20;;;1.40;;
12844;SDS011;68700;48.534;9.196;2024-02-26T02:40:45;2.27;;;1.50;;
12844;SDS011;68700;48.534;9.196;2024-02-26T02:44:07;2.37;;;1.50;;
12844;SDS011;68700;48.534;9.196;2024-02-26T02:47:29;3.63;;;2.70;;
12844;SDS011;68700;48.534;9.196;2024-02-26T02:50:51;1.43;;;1.30;;
12844;SDS011;68700;48.534;9.196;2024-02-26T02:54:14;1.70;;;1.10;;
12844;SDS011;68700;48.534;9.196;2024-02-26T02:57:36;1.87;;;1.20;;
12844;SDS011;68700;48.534;9.196;2024-02-26T03:01:01;3.70;;;1.30;;
12844;SDS011;68700;48.534;9.196;2024-02-26T03:04:23;2.53;;;1.40;;
12844;SDS011;68700;48.534;9.196;2024-02-26T03:07:45;1.80;;;1.30;;
12844;SDS011;68700;48.534;9.196;2024-02-26T03:11:12;1.90;;;1.30;;
12844;SDS011;68700;48.534;9.196;2024-02-26T03:14:35;1.50;;;1.20;;
12844;SDS011;68700;48.534;9.196;2024-02-26T03:17:57;1.50;;;1.30;;
12844;SDS011;68700;48.534;9.196;2024-02-26T03:21:18;2.27;;;1.50;;
12844;SDS011;68700;48.534;9.196;2024-02-26T03:24:40;1.30;;;1.20;;
12844;SDS011;68700;48.534;9.196;2024-02-26T03:28:04;1.97;;;1.13;;
12844;SDS011;68700;48.534;9.196;2024-02-26T03:31:26;2.67;;;1.40;;
12844;SDS011;68700;48.534;9.196;2024-02-26T03:34:48;1.33;;;1.20;;
12844;SDS011;68700;48.534;9.196;2024-02-26T03:38:10;1.77;;;1.43;;
12844;SDS011;68700;48.534;9.196;2024-02-26T03:41:32;1.87;;;1.37;;
12844;SDS011;68700;48.534;9.196;2024-02-26T03:44:55;1.23;;;1.13;;
12844;SDS011;68700;48.534;9.196;2024-02-26T03:48:17;2.67;;;1.40;;
12844;SDS011;68700;48.534;9.196;2024-02-26T03:51:38;1.87;;;1.47;;
12844;SDS011;68700;48.534;9.196;2024-02-26T03:55:00;2.23;;;1.40;;
12844;SDS011;68700;48.534;9.196;2024-02-26T03:58:22;11.50;;;7.73;;
12844;SDS011;68700;48.534;9.196;2024-02-26T04:01:46;3.03;;;2.37;;
12844;SDS011;68700;48.534;9.196;2024-02-26T04:05:09;3.23;;;2.40;;
12844;SDS011;68700;48.534;9.196;2024-02-26T04:08:31;3.37;;;2.37;;
12844;SDS011;68700;48.534;9.196;2024-02-26T04:11:53;2.23;;;2.03;;
12844;SDS011;68700;48.534;9.196;2024-02-26T04:15:15;2.20;;;1.80;;
12844;SDS011;68700;48.534;9.196;2024-02-26T04:18:38;2.00;;;1.70;;
12844;SDS011;68700;48.534;9.196;2024-02-26T04:22:00;1.80;;;1.40;;
12844;SDS011;68700;48.534;9.196;2024-02-26T04:25:22;2.00;;;1.50;;
12844;SDS011;68700;48.534;9.196;2024-02-26T04:28:44;1.83;;;1.20;;
12844;SDS011;68700;48.534;9.196;2024-02-26T04:32:06;2.13;;;1.53;;
12844;SDS011;68700;48.534;9.196;2024-02-26T04:35:29;1.67;;;1.33;;
12844;SDS011;68700;48.534;9.196;2024-02-26T04:38:51;3.00;;;1.50;;
12844;SDS011;68700;48.534;9.196;2024-02-26T04:42:14;2.13;;;1.37;;
12844;SDS011;68700;48.534;9.196;2024-02-26T04:45:36;1.83;;;1.53;;
12844;SDS011;68700;48.534;9.196;2024-02-26T04:48:58;1.83;;;1.60;;
12844;SDS011;68700;48.534;9.196;2024-02-26T04:52:21;1.83;;;1.60;;
12844;SDS011;68700;48.534;9.196;2024-02-26T04:55:43;1.40;;;1.30;;
12844;SDS011;68700;48.534;9.196;2024-02-26T04:59:05;1.87;;;1.57;;
12844;SDS011;68700;48.534;9.196;2024-02-26T05:02:27;2.43;;;1.50;;
12844;SDS011;68700;48.534;9.196;2024-02-26T05:05:50;1.53;;;1.43;;
12844;SDS011;68700;48.534;9.196;2024-02-26T05:09:13;2.47;;;1.50;;
12844;SDS011;68700;48.534;9.196;2024-02-26T05:12:35;2.23;;;1.57;;
12844;SDS011;68700;48.534;9.196;2024-02-26T05:15:57;1.87;;;1.67;;
12844;SDS011;68700;48.534;9.196;2024-02-26T05:19:18;1.67;;;1.40;;
12844;SDS011;68700;48.534;9.196;2024-02-26T05:22:40;1.60;;;1.50;;
12844;SDS011;68700;48.534;9.196;2024-02-26T05:26:04;1.77;;;1.47;;
12844;SDS011;68700;48.534;9.196;2024-02-26T05:29:26;2.80;;;1.60;;
12844;SDS011;68700;48.534;9.196;2024-02-26T05:32:48;3.03;;;2.20;;
12844;SDS011;68700;48.534;9.196;2024-02-26T05:36:10;2.80;;;2.00;;
12844;SDS011;68700;48.534;9.196;2024-02-26T05:39:38;5.63;;;3.47;;
12844;SDS011;68700;48.534;9.196;2024-02-26T05:43:01;4.50;;;2.20;;
12844;SDS011;68700;48.534;9.196;2024-02-26T05:46:23;3.37;;;1.97;;
12844;SDS011;68700;48.534;9.196;2024-02-26T05:49:47;1.60;;;1.50;;
12844;SDS011;68700;48.534;9.196;2024-02-26T05:53:09;2.67;;;1.53;;
12844;SDS011;68700;48.534;9.196;2024-02-26T05:56:30;4.83;;;3.50;;
12844;SDS011;68700;48.534;9.196;2024-02-26T05:59:54;2.73;;;2.00;;
12844;SDS011;68700;48.534;9.196;2024-02-26T06:03:15;1.97;;;1.40;;
12844;SDS011;68700;48.534;9.196;2024-02-26T06:06:37;2.20;;;2.00;;
12844;SDS011;68700;48.534;9.196;2024-02-26T06:09:59;3.43;;;1.87;;
12844;SDS011;68700;48.534;9.196;2024-02-26T06:13:22;2.40;;;2.00;;
12844;SDS011;68700;48.534;9.196;2024-02-26T06:16:45;3.87;;;3.00;;
12844;SDS011;68700;48.534;9.196;2024-02-26T06:20:07;3.87;;;2.50;;
12844;SDS011;68700;48.534;9.196;2024-02-26T06:23:32;4.87;;;2.30;;
12844;SDS011;68700;48.534;9.196;2024-02-26T06:26:54;4.70;;;2.03;;
12844;SDS011;68700;48.534;9.196;2024-02-26T06:30:16;3.07;;;2.30;;
12844;SDS011;68700;48.534;9.196;2024-02-26T06:33:39;3.67;;;2.00;;
12844;SDS011;68700;48.534;9.196;2024-02-26T06:37:01;2.72;;;2.10;;
12844;SDS011;68700;48.534;9.196;2024-02-26T06:40:23;4.10;;;2.40;;
12844;SDS011;68700;48.534;9.196;2024-02-26T06:43:45;3.30;;;2.17;;
12844;SDS011;68700;48.534;9.196;2024-02-26T06:47:07;2.23;;;1.93;;
12844;SDS011;68700;48.534;9.196;2024-02-26T06:50:30;3.57;;;2.30;;
12844;SDS011;68700;48.534;9.196;2024-02-26T06:53:52;3.00;;;2.70;;
12844;SDS011;68700;48.534;9.196;2024-02-26T06:57:14;3.17;;;2.37;;
12844;SDS011;68700;48.534;9.196;2024-02-26T07:00:36;2.97;;;2.40;;
12844;SDS011;68700;48.534;9.196;2024-02-26T07:03:57;5.53;;;3.00;;
12844;SDS011;68700;48.534;9.196;2024-02-26T07:07:21;2.70;;;2.23;;
12844;SDS011;68700;48.534;9.196;2024-02-26T07:10:43;3.00;;;2.60;;
12844;SDS011;68700;48.534;9.196;2024-02-26T07:14:05;4.27;;;2.83;;
12844;SDS011;68700;48.534;9.196;2024-02-26T07:17:27;3.23;;;2.73;;
12844;SDS011;68700;48.534;9.196;2024-02-26T07:20:49;2.40;;;2.20;;
12844;SDS011;68700;48.534;9.196;2024-02-26T07:24:12;2.57;;;2.30;;
12844;SDS011;68700;48.534;9.196;2024-02-26T07:27:34;3.43;;;2.67;;
12844;SDS011;68700;48.534;9.196;2024-02-26T07:30:56;3.10;;;2.53;;
12844;SDS011;68700;48.534;9.196;2024-02-26T07:34:18;3.40;;;2.27;;
12844;SDS011;68700;48.534;9.196;2024-02-26T07:37:40;3.47;;;2.40;;
12844;SDS011;68700;48.534;9.196;2024-02-26T07:41:03;4.30;;;3.00;;
12844;SDS011;68700;48.534;9.196;2024-02-26T07:44:25;3.20;;;2.30;;
12844;SDS011;68700;48.534;9.196;2024-02-26T07:47:47;3.77;;;2.87;;
12844;SDS011;68700;48.534;9.196;2024-02-26T07:51:11;5.67;;;3.00;;
12844;SDS011;68700;48.534;9.196;2024-02-26T07:54:33;3.40;;;3.03;;
12844;SDS011;68700;48.534;9.196;2024-02-26T07:57:56;3.27;;;2.97;;
12844;SDS011;68700;48.534;9.196;2024-02-26T08:01:18;3.40;;;2.50;;
12844;SDS011;68700;48.534;9.196;2024-02-26T08:04:40;3.73;;;2.60;;
12844;SDS011;68700;48.534;9.196;2024-02-26T08:08:02;3.73;;;2.87;;
12844;SDS011;68700;48.534;9.196;2024-02-26T08:11:24;2.77;;;2.30;;
12844;SDS011;68700;48.534;9.196;2024-02-26T08:14:47;3.60;;;2.53;;
12844;SDS011;68700;48.534;9.196;2024-02-26T08:18:09;3.47;;;2.03;;
12844;SDS011;68700;48.534;9.196;2024-02-26T08:21:31;2.40;;;2.00;;
12844;SDS011;68700;48.534;9.196;2024-02-26T08:24:53;4.60;;;2.40;;
12844;SDS011;68700;48.534;9.196;2024-02-26T08:28:15;2.50;;;2.30;;
12844;SDS011;68700;48.534;9.196;2024-02-26T08:31:39;4.07;;;2.60;;
12844;SDS011;68700;48.534;9.196;2024-02-26T08:35:01;4.27;;;2.47;;
12844;SDS011;68700;48.534;9.196;2024-02-26T08:38:23;3.13;;;2.83;;
12844;SDS011;68700;48.534;9.196;2024-02-26T08:41:45;3.97;;;2.63;;
12844;SDS011;68700;48.534;9.196;2024-02-26T08:45:07;6.43;;;2.60;;
12844;SDS011;68700;48.534;9.196;2024-02-26T08:48:31;4.40;;;3.17;;
12844;SDS011;68700;48.534;9.196;2024-02-26T08:51:53;4.10;;;3.23;;
12844;SDS011;68700;48.534;9.196;2024-02-26T08:55:15;6.73;;;3.00;;
12844;SDS011;68700;48.534;9.196;2024-02-26T08:58:37;4.67;;;3.53;;
12844;SDS011;68700;48.534;9.196;2024-02-26T09:01:59;5.80;;;4.07;;
12844;SDS011;68700;48.534;9.196;2024-02-26T09:05:22;5.43;;;3.77;;
12844;SDS011;68700;48.534;9.196;2024-02-26T09:08:44;4.63;;;3.10;;
12844;SDS011;68700;48.534;9.196;2024-02-26T09:12:06;4.60;;;3.20;;
12844;SDS011;68700;48.534;9.196;2024-02-26T09:15:28;2.90;;;2.50;;
12844;SDS011;68700;48.534;9.196;2024-02-26T09:18:50;6.17;;;2.77;;
12844;SDS011;68700;48.534;9.196;2024-02-26T09:22:13;3.80;;;2.90;;
12844;SDS011;68700;48.534;9.196;2024-02-26T09:25:35;4.43;;;3.10;;
12844;SDS011;68700;48.534;9.196;2024-02-26T09:28:57;5.03;;;3.30;;
12844;SDS011;68700;48.534;9.196;2024-02-26T09:32:18;3.60;;;2.70;;
12844;SDS011;68700;48.534;9.196;2024-02-26T09:35:40;6.20;;;3.47;;
12844;SDS011;68700;48.534;9.196;2024-02-26T09:39:04;4.23;;;3.23;;
12844;SDS011;68700;48.534;9.196;2024-02-26T09:42:27;3.40;;;2.70;;
12844;SDS011;68700;48.534;9.196;2024-02-26T09:45:53;3.93;;;3.00;;
12844;SDS011;68700;48.534;9.196;2024-02-26T09:49:15;2.50;;;2.20;;
12844;SDS011;68700;48.534;9.196;2024-02-26T09:52:38;4.83;;;2.83;;
12844;SDS011;68700;48.534;9.196;2024-02-26T09:56:04;3.50;;;2.43;;
12844;SDS011;68700;48.534;9.196;2024-02-26T09:59:27;4.37;;;2.80;;
12844;SDS011;68700;48.534;9.196;2024-02-26T10:02:52;3.73;;;2.60;;
12844;SDS011;68700;48.534;9.196;2024-02-26T10:06:16;3.57;;;2.60;;
12844;SDS011;68700;48.534;9.196;2024-02-26T10:09:38;2.87;;;2.50;;
12844;SDS011;68700;48.534;9.196;2024-02-26T10:13:02;4.13;;;2.43;;
12844;SDS011;68700;48.534;9.196;2024-02-26T10:16:30;2.97;;;2.20;;
12844;SDS011;68700;48.534;9.196;2024-02-26T10:19:52;5.53;;;3.23;;
12844;SDS011;68700;48.534;9.196;2024-02-26T10:23:16;3.10;;;2.40;;
12844;SDS011;68700;48.534;9.196;2024-02-26T10:26:38;3.43;;;2.33;;
12844;SDS011;68700;48.534;9.196;2024-02-26T10:30:15;4.27;;;2.50;;
12844;SDS011;68700;48.534;9.196;2024-02-26T10:33:38;3.90;;;2.50;;
12844;SDS011;68700;48.534;9.196;2024-02-26T10:37:01;3.43;;;2.90;;
12844;SDS011;68700;48.534;9.196;2024-02-26T10:40:23;4.00;;;3.20;;
12844;SDS011;68700;48.534;9.196;2024-02-26T10:43:46;4.67;;;3.07;;
12844;SDS011;68700;48.534;9.196;2024-02-26T10:47:10;3.23;;;2.80;;
12844;SDS011;68700;48.534;9.196;2024-02-26T10:50:32;3.23;;;2.83;;
12844;SDS011;68700;48.534;9.196;2024-02-26T10:53:57;4.27;;;2.87;;
12844;SDS011;68700;48.534;9.196;2024-02-26T10:57:33;5.50;;;3.03;;
12844;SDS011;68700;48.534;9.196;2024-02-26T11:00:57;3.70;;;2.73;;
12844;SDS011;68700;48.534;9.196;2024-02-26T11:04:21;3.30;;;2.90;;
12844;SDS011;68700;48.534;9.196;2024-02-26T11:07:45;4.37;;;2.83;;
12844;SDS011;68700;48.534;9.196;2024-02-26T11:11:08;3.33;;;2.57;;
12844;SDS011;68700;48.534;9.196;2024-02-26T11:14:33;3.13;;;2.53;;
12844;SDS011;68700;48.534;9.196;2024-02-26T11:17:56;2.60;;;2.40;;
12844;SDS011;68700;48.534;9.196;2024-02-26T11:21:20;5.03;;;2.43;;
12844;SDS011;68700;48.534;9.196;2024-02-26T11:24:47;5.97;;;2.70;;
12844;SDS011;68700;48.534;9.196;2024-02-26T11:28:11;4.20;;;2.93;;
12844;SDS011;68700;48.534;9.196;2024-02-26T11:31:36;4.07;;;2.80;;
12844;SDS011;68700;48.534;9.196;2024-02-26T11:34:59;2.40;;;2.20;;
12844;SDS011;68700;48.534;9.196;2024-02-26T11:38:23;3.27;;;2.67;;
12844;SDS011;68700;48.534;9.196;2024-02-26T11:41:47;2.90;;;2.60;;
12844;SDS011;68700;48.534;9.196;2024-02-26T11:56:41;2.97;;;2.50;;
12844;SDS011;68700;48.534;9.196;2024-02-26T12:00:13;3.33;;;2.50;;
12844;SDS011;68700;48.534;9.196;2024-02-26T12:03:36;3.30;;;2.43;;
12844;SDS011;68700;48.534;9.196;2024-02-26T12:07:01;2.20;;;2.00;;
12844;SDS011;68700;48.534;9.196;2024-02-26T12:10:24;3.13;;;1.97;;
12844;SDS011;68700;48.534;9.196;2024-02-26T12:13:49;3.23;;;2.40;;
12844;SDS011;68700;48.534;9.196;2024-02-26T12:17:19;2.57;;;2.33;;
12844;SDS011;68700;48.534;9.196;2024-02-26T12:20:41;2.57;;;2.10;;
12844;SDS011;68700;48.534;9.196;2024-02-26T12:24:07;3.97;;;2.07;;
12844;SDS011;68700;48.534;9.196;2024-02-26T12:27:32;2.77;;;1.90;;
12844;SDS011;68700;48.534;9.196;2024-02-26T12:30:55;3.57;;;2.00;;
12844;SDS011;68700;48.534;9.196;2024-02-26T12:34:19;2.20;;;2.00;;
12844;SDS011;68700;48.534;9.196;2024-02-26T12:37:42;3.60;;;2.10;;
12844;SDS011;68700;48.534;9.196;2024-02-26T12:41:04;4.23;;;1.90;;
12844;SDS011;68700;48.534;9.196;2024-02-26T12:44:27;3.20;;;2.00;;
12844;SDS011;68700;48.534;9.196;2024-02-26T12:47:50;2.17;;;1.90;;
12844;SDS011;68700;48.534;9.196;2024-02-26T12:51:14;3.40;;;2.10;;
12844;SDS011;68700;48.534;9.196;2024-02-26T12:54:37;2.47;;;1.70;;
12844;SDS011;68700;48.534;9.196;2024-02-26T12:57:59;2.80;;;1.60;;
12844;SDS011;68700;48.534;9.196;2024-02-26T13:01:21;3.07;;;1.90;;
12844;SDS011;68700;48.534;9.196;2024-02-26T13:04:47;2.70;;;2.07;;
12844;SDS011;68700;48.534;9.196;2024-02-26T13:08:09;1.93;;;1.57;;
12844;SDS011;68700;48.534;9.196;2024-02-26T13:11:31;3.70;;;1.83;;
12844;SDS011;68700;48.534;9.196;2024-02-26T13:14:59;2.20;;;2.00;;
12844;SDS011;68700;48.534;9.196;2024-02-26T13:18:21;2.60;;;2.03;;
12844;SDS011;68700;48.534;9.196;2024-02-26T13:21:44;2.10;;;1.90;;
12844;SDS011;68700;48.534;9.196;2024-02-26T13:25:06;2.20;;;1.80;;
12844;SDS011;68700;48.534;9.196;2024-02-26T13:28:29;2.33;;;1.80;;
12844;SDS011;68700;48.534;9.196;2024-02-26T13:31:53;4.00;;;2.13;;
12844;SDS011;68700;48.534;9.196;2024-02-26T13:35:16;3.50;;;1.93;;
12844;SDS011;68700;48.534;9.196;2024-02-26T13:38:39;2.20;;;1.60;;
12844;SDS011;68700;48.534;9.196;2024-02-26T13:42:12;2.00;;;1.63;;
12844;SDS011;68700;48.534;9.196;2024-02-26T13:45:34;2.27;;;1.80;;
12844;SDS011;68700;48.534;9.196;2024-02-26T13:48:56;4.83;;;1.83;;
12844;SDS011;68700;48.534;9.196;2024-02-26T13:52:18;2.57;;;1.63;;
12844;SDS011;68700;48.534;9.196;2024-02-26T13:55:41;1.73;;;1.63;;
12844;SDS011;68700;48.534;9.196;2024-02-26T13:59:04;2.20;;;1.67;;
12844;SDS011;68700;48.534;9.196;2024-02-26T14:02:26;1.50;;;1.40;;
12844;SDS011;68700;48.534;9.196;2024-02-26T14:05:48;1.80;;;1.50;;
12844;SDS011;68700;48.534;9.196;2024-02-26T14:09:10;1.40;;;1.30;;
12844;SDS011;68700;48.534;9.196;2024-02-26T14:12:40;2.20;;;1.37;;
12844;SDS011;68700;48.534;9.196;2024-02-26T14:16:03;2.47;;;1.30;;
12844;SDS011;68700;48.534;9.196;2024-02-26T14:19:25;1.10;;;1.00;;
12844;SDS011;68700;48.534;9.196;2024-02-26T14:22:48;1.37;;;1.20;;
12844;SDS011;68700;48.534;9.196;2024-02-26T14:26:10;1.77;;;1.20;;
12844;SDS011;68700;48.534;9.196;2024-02-26T14:29:33;1.40;;;1.30;;
12844;SDS011;68700;48.534;9.196;2024-02-26T14:32:55;3.37;;;1.43;;
12844;SDS011;68700;48.534;9.196;2024-02-26T14:36:17;1.70;;;1.57;;
12844;SDS011;68700;48.534;9.196;2024-02-26T14:39:39;3.30;;;1.60;;
12844;SDS011;68700;48.534;9.196;2024-02-26T14:43:01;3.37;;;1.93;;
12844;SDS011;68700;48.534;9.196;2024-02-26T14:46:26;3.23;;;1.90;;
12844;SDS011;68700;48.534;9.196;2024-02-26T14:49:47;2.03;;;1.73;;
12844;SDS011;68700;48.534;9.196;2024-02-26T14:53:11;1.73;;;1.50;;
12844;SDS011;68700;48.534;9.196;2024-02-26T14:56:33;1.53;;;1.40;;
12844;SDS011;68700;48.534;9.196;2024-02-26T14:59:55;1.43;;;1.33;;
12844;SDS011;68700;48.534;9.196;2024-02-26T15:03:18;2.93;;;1.60;;
12844;SDS011;68700;48.534;9.196;2024-02-26T15:06:40;2.70;;;1.67;;
12844;SDS011;68700;48.534;9.196;2024-02-26T15:10:02;1.77;;;1.60;;
12844;SDS011;68700;48.534;9.196;2024-02-26T15:13:24;5.10;;;2.13;;
12844;SDS011;68700;48.534;9.196;2024-02-26T15:16:46;3.87;;;2.07;;
12844;SDS011;68700;48.534;9.196;2024-02-26T15:20:10;1.93;;;1.60;;
12844;SDS011;68700;48.534;9.196;2024-02-26T15:23:32;2.57;;;1.90;;
12844;SDS011;68700;48.534;9.196;2024-02-26T15:26:55;4.57;;;2.60;;
12844;SDS011;68700;48.534;9.196;2024-02-26T15:30:17;3.83;;;2.20;;
12844;SDS011;68700;48.534;9.196;2024-02-26T15:33:39;12.57;;;6.80;;
12844;SDS011;68700;48.534;9.196;2024-02-26T15:37:02;13.43;;;7.03;;
12844;SDS011;68700;48.534;9.196;2024-02-26T15:40:24;5.13;;;2.97;;
12844;SDS011;68700;48.534;9.196;2024-02-26T15:43:47;6.33;;;3.00;;
12844;SDS011;68700;48.534;9.196;2024-02-26T15:47:10;4.77;;;2.60;;
12844;SDS011;68700;48.534;9.196;2024-02-26T15:50:32;6.37;;;2.70;;
12844;SDS011;68700;48.534;9.196;2024-02-26T15:53:55;4.40;;;2.20;;
12844;SDS011;68700;48.534;9.196;2024-02-26T15:57:18;3.30;;;2.30;;
12844;SDS011;68700;48.534;9.196;2024-02-26T16:00:40;3.30;;;1.90;;
12844;SDS011;68700;48.534;9.196;2024-02-26T16:04:02;3.30;;;1.73;;
12844;SDS011;68700;48.534;9.196;2024-02-26T16:07:26;5.70;;;2.30;;
12844;SDS011;68700;48.534;9.196;2024-02-26T16:10:53;3.77;;;1.80;;
12844;SDS011;68700;48.534;9.196;2024-02-26T16:14:17;2.13;;;1.93;;
12844;SDS011;68700;48.534;9.196;2024-02-26T16:17:47;2.83;;;2.40;;
12844;SDS011;68700;48.534;9.196;2024-02-26T16:21:11;3.67;;;2.27;;
12844;SDS011;68700;48.534;9.196;2024-02-26T16:24:33;3.53;;;2.50;;
12844;SDS011;68700;48.534;9.196;2024-02-26T16:27:57;7.27;;;5.30;;
12844;SDS011;68700;48.534;9.196;2024-02-26T16:31:19;7.53;;;5.27;;
12844;SDS011;68700;48.534;9.196;2024-02-26T16:34:41;4.47;;;3.97;;
12844;SDS011;68700;48.534;9.196;2024-02-26T16:38:03;3.57;;;3.20;;
12844;SDS011;68700;48.534;9.196;2024-02-26T16:41:26;3.40;;;2.73;;
12844;SDS011;68700;48.534;9.196;2024-02-26T16:44:49;5.17;;;3.27;;
12844;SDS011;68700;48.534;9.196;2024-02-26T16:48:11;6.20;;;3.80;;
12844;SDS011;68700;48.534;9.196;2024-02-26T16:51:33;4.70;;;3.67;;
12844;SDS011;68700;48.534;9.196;2024-02-26T16:54:57;8.93;;;3.67;;
12844;SDS011;68700;48.534;9.196;2024-02-26T16:58:20;5.50;;;4.20;;
12844;SDS011;68700;48.534;9.196;2024-02-26T17:01:45;4.27;;;3.57;;
12844;SDS011;68700;48.534;9.196;2024-02-26T17:05:07;6.17;;;3.97;;
12844;SDS011;68700;48.534;9.196;2024-02-26T17:08:30;5.63;;;4.00;;
12844;SDS011;68700;48.534;9.196;2024-02-26T17:11:53;4.63;;;3.53;;
12844;SDS011;68700;48.534;9.196;2024-02-26T17:15:16;3.97;;;3.50;;
12844;SDS011;68700;48.534;9.196;2024-02-26T17:18:39;4.20;;;3.80;;
12844;SDS011;68700;48.534;9.196;2024-02-26T17:22:01;4.60;;;3.50;;
12844;SDS011;68700;48.534;9.196;2024-02-26T17:25:23;5.87;;;4.30;;
12844;SDS011;68700;48.534;9.196;2024-02-26T17:28:45;6.57;;;4.20;;
12844;SDS011;68700;48.534;9.196;2024-02-26T17:32:06;4.30;;;3.40;;
12844;SDS011;68700;48.534;9.196;2024-02-26T17:35:30;4.93;;;4.10;;
12844;SDS011;68700;48.534;9.196;2024-02-26T17:38:51;4.30;;;3.73;;
12844;SDS011;68700;48.534;9.196;2024-02-26T17:42:13;6.43;;;4.00;;
12844;SDS011;68700;48.534;9.196;2024-02-26T17:45:36;5.90;;;4.00;;
12844;SDS011;68700;48.534;9.196;2024-02-26T17:48:57;6.03;;;4.33;;
12844;SDS011;68700;48.534;9.196;2024-02-26T17:52:21;6.13;;;4.27;;
12844;SDS011;68700;48.534;9.196;2024-02-26T17:55:43;6.07;;;3.87;;
12844;SDS011;68700;48.534;9.196;2024-02-26T17:59:04;6.23;;;4.23;;
12844;SDS011;68700;48.534;9.196;2024-02-26T18:02:26;8.53;;;5.00;;
12844;SDS011;68700;48.534;9.196;2024-02-26T18:05:49;7.50;;;4.80;;
12844;SDS011;68700;48.534;9.196;2024-02-26T18:09:12;10.13;;;5.10;;
12844;SDS011;68700;48.534;9.196;2024-02-26T18:12:34;8.80;;;5.47;;
12844;SDS011;68700;48.534;9.196;2024-02-26T18:15:56;6.77;;;4.90;;
12844;SDS011;68700;48.534;9.196;2024-02-26T18:19:18;6.63;;;5.17;;
12844;SDS011;68700;48.534;9.196;2024-02-26T18:22:40;6.80;;;5.20;;
12844;SDS011;68700;48.534;9.196;2024-02-26T18:26:03;13.07;;;8.60;;
12844;SDS011;68700;48.534;9.196;2024-02-26T18:29:25;14.73;;;9.33;;
12844;SDS011;68700;48.534;9.196;2024-02-26T18:32:47;10.20;;;7.63;;
12844;SDS011;68700;48.534;9.196;2024-02-26T18:36:09;12.33;;;6.27;;
12844;SDS011;68700;48.534;9.196;2024-02-26T18:39:31;7.23;;;6.30;;
12844;SDS011;68700;48.534;9.196;2024-02-26T18:42:54;10.00;;;5.80;;
12844;SDS011;68700;48.534;9.196;2024-02-26T18:46:16;7.03;;;6.13;;
12844;SDS011;68700;48.534;9.196;2024-02-26T18:49:38;7.00;;;5.07;;
12844;SDS011;68700;48.534;9.196;2024-02-26T18:53:00;8.37;;;5.70;;
12844;SDS011;68700;48.534;9.196;2024-02-26T18:56:22;9.83;;;5.83;;
12844;SDS011;68700;48.534;9.196;2024-02-26T18:59:45;9.13;;;6.03;;
12844;SDS011;68700;48.534;9.196;2024-02-26T19:03:09;8.67;;;6.23;;
12844;SDS011;68700;48.534;9.196;2024-02-26T19:06:31;9.83;;;7.30;;
12844;SDS011;68700;48.534;9.196;2024-02-26T19:09:55;9.70;;;6.60;;
12844;SDS011;68700;48.534;9.196;2024-02-26T19:13:17;7.53;;;6.10;;
12844;SDS011;68700;48.534;9.196;2024-02-26T19:16:40;7.00;;;5.20;;
12844;SDS011;68700;48.534;9.196;2024-02-26T19:20:03;5.93;;;4.30;;
12844;SDS011;68700;48.534;9.196;2024-02-26T19:23:25;4.70;;;3.30;;
12844;SDS011;68700;48.534;9.196;2024-02-26T19:26:47;4.47;;;3.10;;
12844;SDS011;68700;48.534;9.196;2024-02-26T19:30:10;4.73;;;3.00;;
12844;SDS011;68700;48.534;9.196;2024-02-26T19:33:34;5.83;;;4.87;;
12844;SDS011;68700;48.534;9.196;2024-02-26T19:36:56;6.53;;;4.33;;
12844;SDS011;68700;48.534;9.196;2024-02-26T19:40:21;8.57;;;6.60;;
12844;SDS011;68700;48.534;9.196;2024-02-26T19:43:43;7.30;;;6.57;;
12844;SDS011;68700;48.534;9.196;2024-02-26T19:47:05;9.50;;;5.73;;
12844;SDS011;68700;48.534;9.196;2024-02-26T19:50:29;6.33;;;4.70;;
12844;SDS011;68700;48.534;9.196;2024-02-26T19:53:50;5.17;;;4.40;;
12844;SDS011;68700;48.534;9.196;2024-02-26T19:57:12;5.87;;;4.57;;
12844;SDS011;68700;48.534;9.196;2024-02-26T20:00:34;9.33;;;6.20;;
12844;SDS011;68700;48.534;9.196;2024-02-26T20:03:56;7.83;;;5.47;;
12844;SDS011;68700;48.534;9.196;2024-02-26T20:07:19;8.60;;;5.77;;
12844;SDS011;68700;48.534;9.196;2024-02-26T20:10:41;6.37;;;5.07;;
12844;SDS011;68700;48.534;9.196;2024-02-26T20:14:03;7.77;;;4.57;;
12844;SDS011;68700;48.534;9.196;2024-02-26T20:17:25;6.57;;;4.70;;
12844;SDS011;68700;48.534;9.196;2024-02-26T20:20:47;5.13;;;4.13;;
12844;SDS011;68700;48.534;9.196;2024-02-26T20:24:10;6.63;;;4.63;;
12844;SDS011;68700;48.534;9.196;2024-02-26T20:27:32;5.67;;;4.43;;
12844;SDS011;68700;48.534;9.196;2024-02-26T20:30:55;8.27;;;4.93;;
12844;SDS011;68700;48.534;9.196;2024-02-26T20:34:17;9.17;;;5.00;;